Time;durP1;ratioP1;P1;durP2;ratioP2;P2;SDS_P1;SDS_P2;PMS_P1;PMS_P2;Temp;Humidity;BMP_temperature;BMP_pressure;BME280_temperature;BME280_humidity;BME280_pressure;Samples;Min_cycle;Max_cycle;Signal;HPM_P1;HPM_P2
2022/03/14 17:19:47;;;;;;;341.17;294.40;;;;;;;;;;5066356;28;20957;-63
2022/03/14 17:22:14;;;;;;;139.90;98.97;;;;;;;;;;5057105;28;20785;-62
2022/03/14 17:24:40;;;;;;;596.33;388.57;;;;;;;;;;5052139;28;20434;-64
2022/03/14 17:27:06;;;;;;;20.50;13.47;;;23.60;55.80;;;;;;5060253;28;20482;-60
2022/03/14 17:29:32;;;;;;;15.83;12.00;;;;;;;;;;5059144;28;20418;-64
2022/03/14 17:31:58;;;;;;;17.30;11.90;;;;;;;;;;5049667;28;20443;-63
2022/03/14 17:34:24;;;;;;;20.00;14.40;;;;;;;;;;5065917;28;20445;-63
2022/03/14 17:36:50;;;;;;;88.47;71.67;;;;;;;;;;5065958;28;20420;-63
2022/03/14 17:39:16;;;;;;;38.70;25.07;;;;;;;;;;5058694;28;20477;-64
2022/03/14 17:41:42;;;;;;;3.40;1.40;;;23.80;60.10;;;;;;5059844;28;20445;-64
2022/03/14 17:44:08;;;;;;;8.03;3.70;;;;;;;;;;5050436;28;20939;-64
2022/03/14 17:46:34;;;;;;;23.40;13.80;;;;;;;;;;5065238;28;20596;-64
2022/03/14 17:49:00;;;;;;;16.90;9.50;;;;;;;;;;5065141;28;20553;-64
2022/03/14 17:51:26;;;;;;;7.80;3.20;;;;;;;;;;5064635;28;20418;-63
2022/03/14 17:53:56;;;;;;;11.63;6.00;;;23.70;50.10;;;;;;5046724;28;20442;-63
2022/03/14 17:56:22;;;;;;;29.13;8.57;;;;;;;;;;5051563;28;20475;-65
2022/03/14 17:58:48;;;;;;;14.47;9.37;;;;;;;;;;5063807;28;20523;-66
2022/03/14 18:01:14;;;;;;;12.60;7.47;;;;;;;;;;5065169;28;20424;-64
2022/03/14 18:03:40;;;;;;;9.70;6.83;;;;;;;;;;5064713;28;20445;-64
2022/03/14 18:06:07;;;;;;;10.80;5.53;;;;;;;;;;5052268;28;20446;-65
2022/03/14 18:08:33;;;;;;;4.50;2.73;;;;;;;;;;5046696;28;20427;-64
2022/03/14 18:10:59;;;;;;;9.87;5.47;;;;;;;;;;5048086;28;20883;-62
2022/03/14 18:13:26;;;;;;;10.00;5.53;;;23.60;50.80;;;;;;5062686;28;20452;-63
2022/03/14 18:15:53;;;;;;;12.87;5.57;;;;;;;;;;5061933;28;20432;-66
2022/03/14 18:18:21;;;;;;;11.40;8.87;;;23.70;79.70;;;;;;5067652;28;20469;-64
2022/03/14 18:20:47;;;;;;;10.63;5.97;;;;;;;;;;5059398;28;20905;-62
2022/03/14 18:23:13;;;;;;;22.83;5.27;;;;;;;;;;5053668;28;20450;-65
2022/03/14 18:25:39;;;;;;;12.93;5.27;;;;;;;;;;5058142;28;20438;-65
2022/03/14 18:28:05;;;;;;;10.43;5.73;;;;;;;;;;5085211;28;20416;-66
2022/03/14 18:30:31;;;;;;;12.07;5.07;;;;;;;;;;5040714;28;20422;-65
2022/03/14 18:32:57;;;;;;;8.83;4.53;;;;;;;;;;5062474;28;20465;-64
2022/03/14 18:35:26;;;;;;;10.80;4.83;;;;;;;;;;5048408;28;20474;-63
2022/03/14 18:37:52;;;;;;;8.83;4.63;;;;;;;;;;5060012;28;20450;-64
2022/03/14 18:40:17;;;;;;;4.07;3.67;;;23.90;67.30;;;;;;5032078;28;20412;-64
2022/03/14 18:42:43;;;;;;;8.60;4.03;;;;;;;;;;5068172;28;20457;-64
2022/03/14 18:45:09;;;;;;;9.00;3.97;;;;;;;;;;5058466;28;20186;-64
2022/03/14 18:47:36;;;;;;;9.90;4.07;;;;;;;;;;5062845;28;20923;-65
2022/03/14 18:50:03;;;;;;;13.40;4.80;;;23.80;77.90;;;;;;5071489;28;20525;-65
2022/03/14 18:52:30;;;;;;;8.53;2.60;;;23.80;65.70;;;;;;5071361;28;20441;-65
2022/03/14 18:54:56;;;;;;;4.33;2.60;;;;;;;;;;5046366;28;20427;-66
2022/03/14 18:57:23;;;;;;;6.80;3.03;;;;;;;;;;5030815;28;20485;-60
2022/03/14 18:59:49;;;;;;;4.90;2.30;;;;;;;;;;5031253;28;20746;-62
2022/03/14 19:02:16;;;;;;;4.73;2.73;;;;;;;;;;5031589;28;20447;-59
2022/03/14 19:04:43;;;;;;;5.07;2.30;;;23.70;52.90;;;;;;5031161;28;20446;-61
2022/03/14 19:07:09;;;;;;;5.33;1.50;;;;;;;;;;5030942;28;20888;-61
2022/03/14 19:09:35;;;;;;;2.27;1.20;;;23.80;56.20;;;;;;5030832;28;20969;-59
2022/03/14 19:12:01;;;;;;;5.00;1.73;;;23.40;65.40;;;;;;5031020;28;20411;-61
2022/03/14 19:14:28;;;;;;;1.50;1.40;;;23.90;65.20;;;;;;5033248;28;20361;-62
2022/03/14 19:16:54;;;;;;;2.20;1.17;;;;;;;;;;5059600;28;20263;-62
2022/03/14 19:19:20;;;;;;;3.67;1.30;;;23.60;64.90;;;;;;5052961;28;20471;-61
2022/03/14 19:21:46;;;;;;;3.27;1.57;;;;;;;;;;5067455;28;20444;-62
2022/03/14 19:24:12;;;;;;;2.70;1.73;;;23.30;69.80;;;;;;5070694;28;20512;-62
2022/03/14 19:26:38;;;;;;;3.33;1.30;;;23.50;68.30;;;;;;5041116;28;20879;-63
2022/03/14 19:29:03;;;;;;;2.77;1.30;;;23.60;70.40;;;;;;5034612;28;20625;-62
2022/03/14 19:31:29;;;;;;;2.40;1.10;;;23.40;64.70;;;;;;5038559;28;20195;-62
2022/03/14 19:33:55;;;;;;;5.07;1.70;;;23.30;64.70;;;;;;5050509;28;20253;-61
2022/03/14 19:36:23;;;;;;;4.10;1.90;;;23.30;67.10;;;;;;5044843;28;20187;-62
2022/03/14 19:38:49;;;;;;;2.20;1.77;;;23.40;71.30;;;;;;5030547;28;20254;-63
2022/03/14 19:41:16;;;;;;;1.93;1.63;;;23.50;65.20;;;;;;5029065;28;20519;-62
2022/03/14 19:43:43;;;;;;;6.93;1.37;;;23.20;65.20;;;;;;5029251;28;20423;-61
2022/03/14 19:46:09;;;;;;;2.87;1.07;;;23.20;65.30;;;;;;5055307;28;20426;-62
2022/03/14 19:48:38;;;;;;;2.80;1.50;;;23.30;70.80;;;;;;5068191;28;20758;-62
2022/03/14 19:51:04;;;;;;;5.73;1.70;;;23.40;69.60;;;;;;5069851;28;20416;-61
2022/03/14 19:53:30;;;;;;;5.00;2.20;;;23.30;69.70;;;;;;5063158;28;20446;-61
2022/03/14 19:55:57;;;;;;;6.03;2.13;;;23.20;64.80;;;;;;5047736;28;20175;-61
2022/03/14 19:58:24;;;;;;;6.40;1.73;;;23.40;64.70;;;;;;5049372;28;20477;-61
2022/03/14 20:00:51;;;;;;;2.27;1.20;;;23.00;49.70;;;;;;5049872;28;20441;-61
2022/03/14 20:03:18;;;;;;;3.20;1.77;;;23.10;64.50;;;;;;5032749;28;20972;-61
2022/03/14 20:05:53;;;;;;;1.20;1.10;;;23.30;65.10;;;;;;5029779;28;20422;-61
2022/03/14 20:08:19;;;;;;;4.77;1.60;;;23.40;70.40;;;;;;5029972;28;20419;-62
2022/03/14 20:10:46;;;;;;;2.40;1.43;;;23.10;70.60;;;;;;5030081;28;20446;-63
2022/03/14 20:13:14;;;;;;;7.73;1.80;;;23.10;66.70;;;;;;5037703;28;20910;-63
2022/03/14 20:15:40;;;;;;;2.00;1.50;;;23.00;65.20;;;;;;5034824;28;20453;-63
2022/03/14 20:18:06;;;;;;;4.73;1.53;;;23.30;64.90;;;;;;5036917;28;20496;-64
2022/03/14 20:20:32;;;;;;;5.73;1.97;;;23.20;70.80;;;;;;5049285;28;20426;-63
2022/03/14 20:22:59;;;;;;;4.77;1.60;;;23.30;66.30;;;;;;5048923;28;20199;-66
2022/03/14 20:25:25;;;;;;;8.10;1.60;;;23.30;71.50;;;;;;5049491;28;20410;-64
2022/03/14 20:27:51;;;;;;;3.27;1.60;;;23.00;65.10;;;;;;5032133;28;20422;-65
2022/03/14 20:30:20;;;;;;;2.83;1.53;;;23.40;65.40;;;;;;5029039;28;20213;-64
2022/03/14 20:32:46;;;;;;;2.40;1.30;;;23.20;46.30;;;;;;5029190;28;20871;-65
2022/03/14 20:35:13;;;;;;;4.50;2.03;;;23.30;65.60;;;;;;5028921;28;20522;-65
2022/03/14 20:37:39;;;;;;;1.13;1.00;;;23.30;65.50;;;;;;5028913;28;20502;-64
2022/03/14 20:40:05;;;;;;;1.63;1.20;;;23.30;71.30;;;;;;5029040;28;20419;-65
2022/03/14 20:42:31;;;;;;;1.33;1.13;;;23.30;65.80;;;;;;5028971;28;20861;-64
2022/03/14 20:44:57;;;;;;;3.40;1.30;;;23.20;65.70;;;;;;5033468;28;20453;-64
2022/03/14 20:47:23;;;;;;;1.67;1.57;;;23.00;65.60;;;;;;5033871;28;20259;-65
2022/03/14 20:49:50;;;;;;;4.83;1.83;;;23.20;65.30;;;;;;5048475;28;20176;-64
2022/03/14 20:52:17;;;;;;;2.10;1.30;;;;;;;;;;5046356;28;20425;-66
2022/03/14 20:54:45;;;;;;;3.20;1.20;;;23.30;65.10;;;;;;5028905;28;20518;-67
2022/03/14 20:57:14;;;;;;;3.57;1.10;;;23.10;70.10;;;;;;5045146;28;20426;-65
2022/03/14 20:59:40;;;;;;;2.27;1.30;;;23.10;65.60;;;;;;5048366;28;20633;-65
2022/03/14 21:04:50;;;;;;;2.73;1.53;;;23.20;71.30;;;;;;5047249;28;20657;-63
2022/03/14 21:07:16;;;;;;;4.50;1.80;;;23.20;71.80;;;;;;5039818;28;20521;-63
2022/03/14 21:09:42;;;;;;;2.10;1.30;;;23.30;71.50;;;;;;5028562;28;20260;-64
2022/03/14 21:12:08;;;;;;;2.17;1.33;;;23.40;67.30;;;;;;5029080;28;20195;-64
2022/03/14 21:14:34;;;;;;;1.40;1.30;;;23.20;67.20;;;;;;5043593;28;20199;-64
2022/03/14 21:17:01;;;;;;;8.57;2.07;;;23.20;67.50;;;;;;5045497;28;20422;-64
2022/03/14 21:19:29;;;;;;;9.40;1.90;;;23.40;68.50;;;;;;5048585;28;20600;-63
2022/03/14 21:21:55;;;;;;;2.47;1.80;;;23.00;73.70;;;;;;5048347;28;20603;-62
2022/03/14 21:24:25;;;;;;;1.70;1.00;;;23.50;61.80;;;;;;5047963;28;20508;-63
2022/03/14 21:26:57;;;;;;;6.00;2.77;;;23.30;66.80;;;;;;5051330;28;20425;-62
2022/03/14 21:29:25;;;;;;;3.97;1.50;;;23.40;66.40;;;;;;5064890;28;20429;-62
2022/03/14 21:31:53;;;;;;;1.80;1.60;;;23.50;67.10;;;;;;5062928;28;20460;-63
2022/03/14 21:34:19;;;;;;;2.40;1.43;;;23.60;72.30;;;;;;5046553;28;20439;-63
2022/03/14 21:36:52;;;;;;;6.90;1.93;;;23.30;72.10;;;;;;5043993;28;20432;-62
2022/03/14 21:39:18;;;;;;;4.60;1.87;;;23.40;72.10;;;;;;5045110;28;20461;-63
2022/03/14 21:41:44;;;;;;;1.80;1.70;;;23.20;66.70;;;;;;5047727;28;20781;-63
2022/03/14 21:44:10;;;;;;;2.80;1.83;;;23.50;71.90;;;;;;5047987;28;20457;-66
2022/03/14 21:46:37;;;;;;;3.80;1.80;;;23.60;71.70;;;;;;5047459;28;20220;-63
2022/03/14 21:49:04;;;;;;;3.37;1.40;;;23.50;71.90;;;;;;5048419;28;20183;-63
2022/03/14 21:51:31;;;;;;;2.10;1.33;;;23.40;65.70;;;;;;5037533;28;20430;-63
2022/03/14 21:53:58;;;;;;;2.90;1.53;;;;;;;;;;5047516;28;20455;-63
2022/03/14 21:56:24;;;;;;;1.87;1.37;;;;;;;;;;5044439;28;20484;-63
2022/03/14 21:58:50;;;;;;;1.60;1.50;;;;;;;;;;5048387;28;20462;-63
2022/03/14 22:01:15;;;;;;;2.67;1.80;;;23.30;71.10;;;;;;5048614;28;20886;-63
2022/03/14 22:03:41;;;;;;;10.20;2.20;;;23.80;66.20;;;;;;5048363;28;20427;-63
2022/03/14 22:06:08;;;;;;;11.07;2.13;;;;;;;;;;5051293;28;20654;-65
2022/03/14 22:08:33;;;;;;;2.60;2.20;;;23.50;69.20;;;;;;5051369;28;20270;-63
2022/03/14 22:11:00;;;;;;;2.40;1.93;;;23.50;65.70;;;;;;5052122;28;20518;-64
2022/03/14 22:13:25;;;;;;;2.43;2.10;;;23.70;55.90;;;;;;5051999;28;20261;-63
2022/03/14 22:15:51;;;;;;;5.70;1.93;;;23.50;66.40;;;;;;5051574;28;20426;-64
2022/03/14 22:18:17;;;;;;;3.37;1.83;;;23.20;65.60;;;;;;5040671;28;20619;-64
2022/03/14 22:20:46;;;;;;;3.80;1.70;;;23.10;65.80;;;;;;5059642;28;20186;-65
2022/03/14 22:23:16;;;;;;;2.67;1.90;;;23.20;65.80;;;;;;5051813;28;20438;-64
2022/03/14 22:25:43;;;;;;;3.83;2.00;;;23.20;65.40;;;;;;5048383;28;20506;-63
2022/03/14 22:28:09;;;;;;;4.40;1.77;;;;;;;;;;5050707;28;20426;-63
2022/03/14 22:30:35;;;;;;;2.90;1.87;;;;;;;;;;5051606;28;20418;-63
2022/03/14 22:33:01;;;;;;;2.80;1.60;;;23.40;70.50;;;;;;5051443;28;20505;-63
2022/03/14 22:35:28;;;;;;;6.70;2.43;;;23.30;65.60;;;;;;5051425;28;20489;-64
2022/03/14 22:37:53;;;;;;;1.27;1.17;;;23.30;71.30;;;;;;5050388;28;20196;-63
2022/03/14 22:40:19;;;;;;;2.03;1.83;;;23.20;71.40;;;;;;5031404;28;20792;-63
2022/03/14 22:42:45;;;;;;;1.77;1.67;;;23.30;65.90;;;;;;5038940;28;20200;-63
2022/03/14 22:45:13;;;;;;;2.27;1.47;;;23.00;65.60;;;;;;5049592;28;20271;-63
2022/03/14 22:47:39;;;;;;;3.43;2.07;;;23.20;66.20;;;;;;5047090;28;20464;-63
2022/03/14 22:50:06;;;;;;;2.20;1.60;;;23.10;71.20;;;;;;5050837;28;20454;-63
2022/03/14 22:52:32;;;;;;;3.60;1.70;;;23.00;66.10;;;;;;5050903;28;20463;-63
2022/03/14 22:54:57;;;;;;;1.57;1.37;;;23.30;70.50;;;;;;5051004;28;20591;-63
2022/03/14 22:57:25;;;;;;;1.93;1.50;;;23.20;66.80;;;;;;5042163;28;20196;-63
2022/03/14 22:59:53;;;;;;;1.67;1.57;;;23.10;70.70;;;;;;5031033;28;20231;-64
2022/03/14 23:05:10;;;;;;;1.70;1.60;;;23.20;66.60;;;;;;5031435;28;20488;-63
2022/03/14 23:11:27;;;;;;;1.63;1.53;;;23.20;66.20;;;;;;5040548;28;20425;-64
2022/03/14 23:13:09;;;;;;;2.30;1.60;;;23.20;71.10;;;;;;5030670;28;20939;-63
2022/03/14 23:15:34;;;;;;;1.73;1.60;;;22.90;66.10;;;;;;5030700;28;20852;-63
2022/03/14 23:18:00;;;;;;;4.13;1.70;;;23.20;66.00;;;;;;5040868;28;20493;-63
2022/03/14 23:20:25;;;;;;;2.60;1.37;;;23.20;66.50;;;;;;5045049;28;20467;-63
2022/03/14 23:22:53;;;;;;;1.83;1.40;;;22.70;71.30;;;;;;5070762;28;20626;-65
2022/03/14 23:25:18;;;;;;;5.97;1.80;;;23.10;67.30;;;;;;5070640;28;20633;-63
2022/03/14 23:27:46;;;;;;;3.73;1.50;;;;;;;;;;5070668;28;20459;-63
2022/03/14 23:30:12;;;;;;;3.70;1.77;;;22.90;65.90;;;;;;5051624;28;20263;-63
2022/03/14 23:32:38;;;;;;;4.63;1.70;;;23.00;66.10;;;;;;5050509;28;20431;-64
2022/03/14 23:35:04;;;;;;;2.93;1.30;;;23.00;66.10;;;;;;5036344;28;20180;-63
2022/03/14 23:37:30;;;;;;;2.17;1.97;;;;;;;;;;5030633;28;20502;-64
2022/03/14 23:39:56;;;;;;;2.30;1.60;;;23.00;66.20;;;;;;5045414;28;20466;-63
2022/03/14 23:42:22;;;;;;;5.23;1.80;;;22.90;66.00;;;;;;5050504;28;20414;-66
2022/03/14 23:44:48;;;;;;;1.53;1.43;;;22.90;66.30;;;;;;5050280;28;20176;-63
2022/03/14 23:47:14;;;;;;;2.40;1.53;;;23.00;66.50;;;;;;5039624;28;20530;-64
2022/03/14 23:49:40;;;;;;;4.50;1.40;;;;;;;;;;5043931;28;20222;-64
2022/03/14 23:52:06;;;;;;;1.50;1.40;;;23.00;66.50;;;;;;5049894;28;20433;-64
2022/03/14 23:54:32;;;;;;;1.33;1.23;;;;;;;;;;5050014;28;20445;-63
2022/03/14 23:56:58;;;;;;;1.90;1.00;;;23.10;66.30;;;;;;5046557;28;20225;-63
2022/03/14 23:59:24;;;;;;;1.57;1.03;;;23.10;72.20;;;;;;5030026;28;20467;-65
